Airfield :
LOGIN :

Register | Disclaimer

   EN    FR    IT 

 










Legend :    VFR   Marginal VFR   IFR   Intensive IFR   Very Intensive IFR
Visi :
Ceiling :
>= 8 km
>= 3000ft
5 to 8 km
1000 to 3000 ft
1500m to 5 km
500 to 1000 ft
800 to 1500m
200 to 500 ft
< 800m
< 200 ft
Symbols :   Thunderstorms  Fog  Heavy snow  Heavy precipitations  Wind > 20 kt
SIGMETs :     Misc.  Thunderstorms  Icing  Turbulence  Mountain Waves  Volcanic Ashes






- Airport Elevation : 1367 ft
- IATA code : FDH


EDNY - Friedrichshafen

CURRENT METAR :
  • 181620Z AUTO 24008KT 9999 // FEW023/// OVC055/// 02/M02 Q1026

EXPIRED METARs :
  • 181550Z AUTO 25007KT 9999 // FEW023/// OVC051/// 02/M01 Q1026
  • 181520Z 24009KT 9999 SCT023 OVC057 02/M02 Q1026
  • 181450Z 32003KT 9999 FEW020 SCT025 OVC056 02/M01 Q1026
  • 181420Z VRB01KT 9999 BKN020 OVC056 03/M00 Q1026
  • 181350Z 26007KT 240V300 9999 OVC052 02/M01 Q1026

TAF TAF EDNY
Valid from the 18 at 12:00 until the 19 at 12:00 UTC


181100Z 1812/1912 24006KT 9999 FEW015 BKN045
BECMG 1818/1820 VRB03KT
TEMPO 1823/1909 3000 BCFG
PROB30
TEMPO 1901/1908 0400 FZFG VV001
BECMG 1909/1911 23005KT



MET'MAP, your aeronautical weather chart ! - Copyright ORBIFLY December 2007 - Disclaimer

ORBIFLY MET'MAP TEAM :

Programming & Development : Alexandra Zaïnal
Concept & original design : Baudouin d'Aumeries
Assistance for programming : Marc-Olivier Méhu
Technical & hardware support : Manuel Goepfert

Contact : metmap@orbifly.com




SOURCES & CREDITS :

   NOAA